Stickney, Illinois
Current Conditions -  °F | °C
As of 8:53 PM on Saturday 20 Dec 2014 (Local Time) from KMDW Reporting Station
Overcast Overcast  
Wind Chill: 28°   Ceiling: 4400
Heat Index: 34°   Visibility: 10mi
Dew Point: 26°   Wind: 7mph
Humidity: 73%   Direction: 180°S
Pressure: 30.27"   Gusts: NA
Location:  41.789°N, 87.7699°W
Report Text: KMDW 210253Z 18006KT 10SM OVC044 01/M03 A3027 RMK AO2 SLP260 60000 T00111033 50000
Loading
Personal Weather Stations






























Interactive Weather Map New forecast layout! Learn more

10-Day Weather Forecast

Advertisements
Track Severe Weather on mobile